createdAt,value
2023-02-07T00:00:22.209Z,691.00
2023-02-07T00:01:22.202Z,688.00
2023-02-07T00:02:22.320Z,688.00
2023-02-07T00:03:22.252Z,688.00
2023-02-07T00:04:22.277Z,685.00
2023-02-07T00:05:22.321Z,682.00
2023-02-07T00:06:22.355Z,682.00
2023-02-07T00:07:22.368Z,681.00
2023-02-07T00:08:22.400Z,681.00
2023-02-07T00:09:22.422Z,681.00
2023-02-07T00:10:22.453Z,681.00
2023-02-07T00:11:22.471Z,684.00
2023-02-07T00:12:22.505Z,683.00
2023-02-07T00:13:22.544Z,682.00
2023-02-07T00:14:22.560Z,683.00
2023-02-07T00:15:22.594Z,682.00
2023-02-07T00:16:22.649Z,680.00
2023-02-07T00:17:22.637Z,681.00
2023-02-07T00:18:22.658Z,680.00
2023-02-07T00:19:22.695Z,678.00
2023-02-07T00:20:22.717Z,677.00
2023-02-07T00:21:22.742Z,678.00
2023-02-07T00:22:22.763Z,682.00
2023-02-07T00:23:22.777Z,684.00
2023-02-07T00:24:22.818Z,685.00
2023-02-07T00:25:22.830Z,687.00
2023-02-07T00:26:22.857Z,688.00
2023-02-07T00:27:22.878Z,685.00
2023-02-07T00:28:23.010Z,687.00
2023-02-07T00:29:22.925Z,686.00
2023-02-07T00:30:22.988Z,686.00
2023-02-07T00:31:23.130Z,685.00
2023-02-07T00:32:23.012Z,684.00
2023-02-07T00:33:23.045Z,682.00
2023-02-07T04:25:28.289Z,648.00
2023-02-07T04:26:28.323Z,648.00
2023-02-07T04:42:28.792Z,647.00
2023-02-07T04:43:28.821Z,650.00
2023-02-07T04:44:28.847Z,648.00
2023-02-07T04:45:28.937Z,649.00
2023-02-07T04:46:28.904Z,649.00
2023-02-07T04:47:28.931Z,650.00
2023-02-07T04:48:28.953Z,651.00
2023-02-07T04:49:28.973Z,649.00
2023-02-07T04:50:29.007Z,647.00
2023-02-07T04:51:29.044Z,647.00
2023-02-07T04:52:29.081Z,648.00
2023-02-07T04:54:29.134Z,644.00
2023-02-07T04:55:29.176Z,645.00
2023-02-07T04:56:29.220Z,643.00
2023-02-07T04:57:29.232Z,644.00
2023-02-07T04:58:29.269Z,646.00
2023-02-07T04:59:29.300Z,642.00
2023-02-07T05:00:29.330Z,642.00
2023-02-07T05:01:29.415Z,644.00
2023-02-07T05:02:29.397Z,646.00
2023-02-07T05:03:29.429Z,645.00
2023-02-07T05:04:29.531Z,645.00
2023-02-07T05:05:29.503Z,647.00
2023-02-07T05:06:29.531Z,646.00
2023-02-07T05:07:29.559Z,647.00
2023-02-07T05:08:29.610Z,650.00
2023-02-07T05:09:29.628Z,654.00
2023-02-07T05:10:29.666Z,654.00
2023-02-07T05:11:29.696Z,656.00
2023-02-07T05:12:29.708Z,656.00
2023-02-07T05:13:29.744Z,653.00
2023-02-07T09:04:38.103Z,973.00
2023-02-07T09:05:38.168Z,975.00
2023-02-07T09:06:38.224Z,978.00
2023-02-07T09:07:38.282Z,979.00
2023-02-07T09:08:38.352Z,977.00
2023-02-07T09:09:38.427Z,977.00
2023-02-07T09:10:38.863Z,970.00
2023-02-07T09:11:38.597Z,972.00
2023-02-07T09:12:38.608Z,1013.00
2023-02-07T09:13:38.675Z,1065.00
2023-02-07T09:14:38.786Z,1194.00
2023-02-07T09:15:38.843Z,1449.00
2023-02-07T09:16:38.929Z,1392.00
2023-02-07T09:17:38.986Z,1490.00
2023-02-07T09:18:39.096Z,1573.00
2023-02-07T09:19:39.163Z,1640.00
2023-02-07T09:20:39.572Z,1675.00
2023-02-07T09:21:39.314Z,1749.00
2023-02-07T09:22:39.387Z,1728.00
2023-02-07T09:23:39.463Z,1747.00
2023-02-07T09:25:40.778Z,1755.00
2023-02-07T09:26:39.515Z,1783.00
2023-02-07T09:27:39.519Z,1678.00
2023-02-07T09:28:39.544Z,1692.00
2023-02-07T09:29:39.584Z,1615.00
2023-02-07T09:30:39.680Z,1438.00
2023-02-07T09:31:39.813Z,1407.00
2023-02-07T09:32:39.677Z,1379.00
2023-02-07T09:33:39.712Z,1338.00
2023-02-07T09:34:39.760Z,1305.00
2023-02-07T09:35:39.792Z,1279.00
2023-02-07T09:36:39.828Z,1283.00
2023-02-07T09:37:48.736Z,1286.00
2023-02-07T09:39:39.898Z,1281.00
2023-02-07T09:40:40.197Z,1277.00
2023-02-07T09:41:39.917Z,1285.00
2023-02-07T09:42:39.926Z,1277.00
2023-02-07T09:43:40.082Z,1256.00
2023-02-07T09:44:40.217Z,1244.00
2023-02-07T09:45:40.031Z,1235.00
2023-02-07T09:46:40.002Z,1225.00
2023-02-07T09:47:40.021Z,1214.00
2023-02-07T09:48:40.056Z,1188.00
2023-02-07T09:49:40.058Z,1165.00
2023-02-07T09:50:40.553Z,1160.00
2023-02-07T09:51:40.100Z,1151.00
2023-02-07T09:52:40.110Z,1147.00
2023-02-07T09:53:40.115Z,1138.00
2023-02-07T09:54:40.130Z,1138.00
2023-02-07T09:55:40.548Z,1126.00
2023-02-07T09:56:40.164Z,1121.00
2023-02-07T09:57:40.185Z,1116.00
2023-02-07T09:58:41.022Z,1109.00
2023-02-07T09:59:40.240Z,1108.00
2023-02-07T10:00:40.610Z,1112.00
2023-02-07T10:01:40.299Z,1106.00
2023-02-07T10:02:40.346Z,1097.00
2023-02-07T10:03:40.342Z,1090.00
2023-02-07T10:04:40.394Z,1087.00
2023-02-07T10:05:40.424Z,1087.00
2023-02-07T11:28:43.788Z,1077.00
2023-02-07T11:29:43.822Z,1080.00
2023-02-07T11:30:43.878Z,1080.00
2023-02-07T11:31:43.930Z,1083.00
2023-02-07T11:32:43.914Z,1084.00
2023-02-07T11:33:43.945Z,1086.00
2023-02-07T11:34:43.983Z,1088.00
2023-02-07T11:35:44.012Z,1082.00
2023-02-07T11:36:44.039Z,1074.00
2023-02-07T11:37:44.071Z,1069.00
2023-02-07T11:38:44.092Z,1064.00
2023-02-07T11:39:44.140Z,1064.00
2023-02-07T11:40:44.165Z,1068.00
2023-02-07T11:41:44.207Z,1075.00
2023-02-07T11:42:44.240Z,1069.00
2023-02-07T11:43:44.263Z,1074.00
2023-02-07T11:44:44.305Z,1085.00
2023-02-07T11:45:44.352Z,1085.00
2023-02-07T11:46:44.368Z,1088.00
2023-02-07T11:47:44.394Z,1089.00
2023-02-07T11:48:44.413Z,1095.00
2023-02-07T11:49:44.435Z,1107.00
2023-02-07T11:50:44.465Z,1104.00
2023-02-07T11:51:44.493Z,1088.00
2023-02-07T11:52:44.525Z,1084.00
2023-02-07T11:53:45.117Z,1084.00
2023-02-07T11:54:44.581Z,1088.00
2023-02-07T11:55:44.610Z,1078.00
2023-02-07T11:56:44.649Z,1067.00
2023-02-07T11:57:44.668Z,1058.00
2023-02-07T11:58:44.701Z,1060.00
2023-02-07T11:59:44.782Z,1079.00
2023-02-07T12:00:44.766Z,1108.00
2023-02-07T12:01:44.825Z,1128.00
2023-02-07T12:02:44.812Z,1173.00
2023-02-07T12:04:44.882Z,1187.00
2023-02-07T12:05:44.892Z,1227.00
2023-02-07T12:06:44.915Z,1247.00
2023-02-07T12:07:44.943Z,1258.00
2023-02-07T12:08:44.957Z,1315.00
2023-02-07T12:09:44.994Z,1321.00
2023-02-07T12:10:45.023Z,1312.00
2023-02-07T12:11:45.042Z,1314.00
2023-02-07T12:12:45.068Z,1301.00
2023-02-07T12:13:45.086Z,1277.00
2023-02-07T12:14:45.123Z,1273.00
2023-02-07T12:15:45.124Z,1286.00
2023-02-07T12:16:45.139Z,1284.00
2023-02-07T12:17:45.180Z,1288.00
2023-02-07T12:18:45.214Z,1225.00
2023-02-07T12:19:45.216Z,1228.00
2023-02-07T12:20:45.252Z,1245.00
2023-02-07T12:21:45.252Z,1187.00
2023-02-07T12:22:53.216Z,1193.00
2023-02-07T12:23:46.303Z,1208.00
2023-02-07T12:24:45.271Z,1206.00
2023-02-07T12:25:45.280Z,1210.00
2023-02-07T12:26:45.285Z,1214.00
2023-02-07T12:27:45.296Z,1201.00
2023-02-07T12:28:45.288Z,1181.00
2023-02-07T12:29:45.300Z,1165.00
2023-02-07T12:30:45.374Z,1186.00
2023-02-07T12:31:45.505Z,1241.00
2023-02-07T12:32:45.437Z,1231.00
2023-02-07T12:33:45.308Z,1174.00
2023-02-07T12:34:45.321Z,1179.00
2023-02-07T12:35:55.597Z,1208.00
2023-02-07T12:37:45.340Z,1200.00
2023-02-07T12:38:45.349Z,1190.00
2023-02-07T12:39:45.351Z,1189.00
2023-02-07T12:40:45.360Z,1198.00
2023-02-07T12:41:45.377Z,1203.00
2023-02-07T12:42:45.391Z,1202.00
2023-02-07T12:43:45.399Z,1207.00
2023-02-07T12:44:46.411Z,1215.00
2023-02-07T12:45:45.441Z,1216.00
2023-02-07T12:46:45.423Z,1218.00
2023-02-07T12:47:45.434Z,1208.00
2023-02-07T12:48:45.435Z,1200.00
2023-02-07T12:49:45.430Z,1206.00
2023-02-07T12:50:45.450Z,1195.00
2023-02-07T12:51:45.466Z,1207.00
2023-02-07T12:52:45.493Z,1249.00
2023-02-07T12:53:45.500Z,1249.00
2023-02-07T14:19:48.114Z,1138.00
2023-02-07T14:20:48.142Z,1133.00
2023-02-07T14:21:48.172Z,1127.00
2023-02-07T14:22:48.222Z,1125.00
2023-02-07T14:23:48.267Z,1125.00
2023-02-07T14:24:48.303Z,1127.00
2023-02-07T14:28:48.491Z,1158.00
2023-02-07T14:44:49.159Z,1135.00
2023-02-07T18:50:58.134Z,886.00
2023-02-07T18:51:58.174Z,887.00
2023-02-07T18:52:58.225Z,885.00
2023-02-07T18:53:58.266Z,885.00
2023-02-07T18:54:58.301Z,882.00
2023-02-07T18:55:58.350Z,880.00
2023-02-07T18:56:58.406Z,880.00
2023-02-07T18:57:58.440Z,879.00
2023-02-07T18:58:58.481Z,878.00
2023-02-07T18:59:58.551Z,877.00
2023-02-07T19:00:58.580Z,875.00
2023-02-07T19:01:58.616Z,877.00
2023-02-07T19:02:58.663Z,876.00
2023-02-07T19:03:58.704Z,879.00
2023-02-07T19:04:58.784Z,876.00
2023-02-07T19:05:58.798Z,875.00
2023-02-07T19:06:58.842Z,875.00
2023-02-07T19:07:58.889Z,874.00
2023-02-07T19:08:58.922Z,874.00
2023-02-07T19:09:58.952Z,871.00
2023-02-07T19:10:58.997Z,868.00
2023-02-07T19:11:59.031Z,866.00
2023-02-07T19:12:59.071Z,864.00
2023-02-07T19:13:59.122Z,863.00
2023-02-07T19:14:59.159Z,862.00
2023-02-07T19:15:59.238Z,861.00
2023-02-07T19:16:59.244Z,861.00
2023-02-07T19:17:59.279Z,858.00
2023-02-07T19:18:59.344Z,859.00
2023-02-07T19:19:59.414Z,859.00
2023-02-07T19:20:59.419Z,861.00
2023-02-07T19:21:59.456Z,862.00
2023-02-07T19:22:59.515Z,861.00
2023-02-07T19:23:59.560Z,860.00
2023-02-07T19:24:59.611Z,861.00
2023-02-07T19:25:59.662Z,858.00
2023-02-07T19:26:59.711Z,855.00
2023-02-07T19:27:59.764Z,855.00
2023-02-07T19:28:59.787Z,852.00
2023-02-07T19:29:59.840Z,847.00
2023-02-07T19:30:59.936Z,844.00
2023-02-07T19:31:59.936Z,849.00
2023-02-07T19:32:59.982Z,846.00
2023-02-07T19:34:00.013Z,845.00
2023-02-07T19:35:00.073Z,844.00
2023-02-07T19:36:00.118Z,842.00
2023-02-07T19:37:00.150Z,840.00
2023-02-07T19:38:00.195Z,839.00
2023-02-07T19:39:00.246Z,841.00
2023-02-07T19:40:00.313Z,840.00
2023-02-07T19:41:00.351Z,840.00
2023-02-07T19:42:00.386Z,839.00
2023-02-07T19:43:00.433Z,837.00
2023-02-07T19:44:00.485Z,836.00
2023-02-07T19:45:00.601Z,836.00
2023-02-07T19:46:00.589Z,835.00
2023-02-07T19:47:00.621Z,833.00
2023-02-07T19:48:00.659Z,831.00
2023-02-07T19:49:00.712Z,830.00
2023-02-07T19:50:00.758Z,828.00
2023-02-07T19:51:00.811Z,830.00
2023-02-07T19:52:00.857Z,833.00
2023-02-07T19:53:00.906Z,830.00
2023-02-07T19:54:00.947Z,830.00
2023-02-07T19:55:00.993Z,829.00
2023-02-07T19:56:01.045Z,829.00
2023-02-07T19:57:01.078Z,827.00
2023-02-07T19:58:01.115Z,827.00
2023-02-07T19:59:01.162Z,827.00
2023-02-07T20:00:01.207Z,830.00
2023-02-07T20:01:01.260Z,829.00
2023-02-07T20:02:01.352Z,829.00
2023-02-07T20:03:01.346Z,828.00
2023-02-07T20:04:01.526Z,829.00
2023-02-07T20:05:01.430Z,829.00
2023-02-07T20:06:01.512Z,827.00
2023-02-07T20:07:01.554Z,829.00
2023-02-07T20:08:01.608Z,829.00
2023-02-07T20:09:01.609Z,827.00
2023-02-07T20:10:01.657Z,829.00
2023-02-07T20:11:01.711Z,827.00
2023-02-07T20:12:01.748Z,828.00
2023-02-07T20:13:01.790Z,825.00
2023-02-07T20:14:01.857Z,824.00
2023-02-07T20:15:01.919Z,820.00
2023-02-07T20:16:01.933Z,821.00
2023-02-07T20:17:01.979Z,822.00
2023-02-07T20:18:02.018Z,822.00
2023-02-07T20:19:02.065Z,822.00
2023-02-07T20:20:02.096Z,819.00
2023-02-07T20:21:10.884Z,819.00
2023-02-07T20:22:03.196Z,818.00
2023-02-07T20:23:02.186Z,816.00
2023-02-07T20:24:02.190Z,814.00
2023-02-07T20:25:02.212Z,813.00
2023-02-07T20:26:02.208Z,813.00
2023-02-07T20:27:02.228Z,813.00
2023-02-07T20:28:02.263Z,811.00
2023-02-07T20:29:02.272Z,810.00
2023-02-07T20:30:02.301Z,808.00
2023-02-07T20:31:02.400Z,806.00
2023-02-07T20:32:02.376Z,804.00
2023-02-07T20:33:02.315Z,801.00
2023-02-07T20:34:02.341Z,802.00
2023-02-07T20:35:02.358Z,801.00
2023-02-07T20:36:02.374Z,800.00
2023-02-07T20:37:02.361Z,802.00
2023-02-07T20:38:02.387Z,805.00
2023-02-07T20:39:02.403Z,804.00
2023-02-07T20:40:02.469Z,808.00
2023-02-07T20:41:02.511Z,806.00
2023-02-07T20:42:02.572Z,804.00
2023-02-07T20:43:02.603Z,804.00
2023-02-07T20:44:04.928Z,802.00
2023-02-07T20:45:02.864Z,799.00
2023-02-07T20:46:02.918Z,799.00
2023-02-07T20:47:03.077Z,799.00
2023-02-07T20:48:03.008Z,800.00
2023-02-07T20:49:03.062Z,802.00
2023-02-07T20:50:03.090Z,802.00
2023-02-07T20:51:03.143Z,803.00
2023-02-07T20:52:03.210Z,798.00
2023-02-07T20:53:03.246Z,797.00
2023-02-07T20:54:03.310Z,795.00
2023-02-07T20:55:03.337Z,793.00
2023-02-07T20:56:03.388Z,792.00
2023-02-07T20:57:03.430Z,790.00
2023-02-07T20:58:03.470Z,789.00
2023-02-07T20:59:03.529Z,785.00
2023-02-07T21:00:03.569Z,789.00
2023-02-07T21:01:03.716Z,789.00
2023-02-07T21:02:03.746Z,787.00
2023-02-07T21:03:03.717Z,785.00
2023-02-07T21:04:03.774Z,783.00
2023-02-07T21:05:03.819Z,782.00
2023-02-07T21:06:03.869Z,783.00
2023-02-07T21:07:03.933Z,783.00
2023-02-07T21:08:03.964Z,785.00
2023-02-07T21:09:04.014Z,784.00
2023-02-07T21:10:04.860Z,785.00
2023-02-07T21:11:04.113Z,782.00
2023-02-07T21:12:04.179Z,778.00
2023-02-07T21:13:04.245Z,779.00
2023-02-07T21:14:04.273Z,779.00
2023-02-07T21:15:04.306Z,777.00
2023-02-07T21:16:04.357Z,777.00
2023-02-07T21:17:04.403Z,778.00
2023-02-07T21:18:04.450Z,777.00
2023-02-07T21:19:04.521Z,778.00
2023-02-07T21:20:04.548Z,779.00
2023-02-07T21:21:04.623Z,777.00
2023-02-07T21:22:04.652Z,774.00
2023-02-07T21:23:04.682Z,774.00
2023-02-07T21:24:04.776Z,774.00
2023-02-07T21:25:04.789Z,775.00
2023-02-07T21:26:04.820Z,774.00
2023-02-07T21:27:04.877Z,774.00
2023-02-07T21:28:04.939Z,774.00
2023-02-07T21:29:04.958Z,773.00
2023-02-07T21:30:05.023Z,773.00
2023-02-07T21:31:05.182Z,774.00
2023-02-07T21:32:05.179Z,773.00
2023-02-07T21:33:05.178Z,773.00
2023-02-07T21:34:05.221Z,772.00
2023-02-07T21:35:05.273Z,770.00
2023-02-07T21:36:05.305Z,772.00
2023-02-07T21:37:05.355Z,773.00
2023-02-07T21:38:05.428Z,773.00
2023-02-07T21:39:05.441Z,771.00
2023-02-07T21:40:05.494Z,773.00
2023-02-07T21:41:05.547Z,774.00
2023-02-07T21:42:05.591Z,774.00
2023-02-07T21:43:05.637Z,774.00
2023-02-07T21:44:05.674Z,771.00
2023-02-07T21:45:05.729Z,769.00
2023-02-07T21:46:05.822Z,770.00
2023-02-07T21:47:05.825Z,769.00
2023-02-07T21:48:05.860Z,767.00
2023-02-07T21:49:05.913Z,768.00
2023-02-07T21:51:06.009Z,763.00
2023-02-07T22:35:08.158Z,760.00
2023-02-07T22:36:08.202Z,760.00
2023-02-07T22:37:08.251Z,759.00
2023-02-07T22:38:08.309Z,757.00
2023-02-07T22:39:08.354Z,755.00
2023-02-07T22:40:08.394Z,754.00
2023-02-07T22:41:08.455Z,757.00
2023-02-07T22:42:08.498Z,758.00
2023-02-07T22:43:08.591Z,759.00
2023-02-07T22:44:08.578Z,757.00
2023-02-07T22:45:08.624Z,756.00
2023-02-07T22:46:08.722Z,757.00
2023-02-07T22:47:08.726Z,756.00
2023-02-07T22:48:08.762Z,754.00
2023-02-07T22:49:08.827Z,754.00
2023-02-07T22:50:08.865Z,753.00
2023-02-07T22:51:08.916Z,754.00
2023-02-07T22:52:08.971Z,755.00
2023-02-07T22:53:09.016Z,756.00
2023-02-07T22:54:09.069Z,755.00
2023-02-07T22:55:09.111Z,752.00
2023-02-07T22:56:09.155Z,751.00
2023-02-07T22:57:09.201Z,750.00
2023-02-07T22:58:09.239Z,750.00
2023-02-07T22:59:09.310Z,750.00
2023-02-07T23:00:09.346Z,750.00
2023-02-07T23:01:09.400Z,748.00
2023-02-07T23:02:09.445Z,745.00
2023-02-07T23:03:09.464Z,744.00
2023-02-07T23:04:09.558Z,744.00
2023-02-07T23:05:09.564Z,744.00
2023-02-07T23:06:09.623Z,746.00
2023-02-07T23:07:09.663Z,748.00
2023-02-07T23:08:09.710Z,747.00
2023-02-07T23:09:09.748Z,746.00
2023-02-07T23:10:09.806Z,749.00
2023-02-07T23:11:09.859Z,745.00
2023-02-07T23:12:09.893Z,746.00
2023-02-07T23:13:09.952Z,746.00
2023-02-07T23:14:09.992Z,745.00
2023-02-07T23:15:10.055Z,745.00
2023-02-07T23:16:10.134Z,746.00
2023-02-07T23:17:10.149Z,745.00
2023-02-07T23:18:10.196Z,744.00
2023-02-07T23:19:10.234Z,744.00
2023-02-07T23:20:10.286Z,742.00
2023-02-07T23:21:10.332Z,741.00
2023-02-07T23:22:10.389Z,739.00
2023-02-07T23:23:10.430Z,738.00
2023-02-07T23:50:11.746Z,736.00
2023-02-07T23:51:11.839Z,738.00
2023-02-07T23:52:11.860Z,738.00
2023-02-07T23:53:11.902Z,737.00
2023-02-07T23:54:11.945Z,739.00
2023-02-07T23:55:12.019Z,744.00
2023-02-07T23:56:12.052Z,742.00
2023-02-07T23:57:12.145Z,744.00
2023-02-07T23:58:12.182Z,742.00
2023-02-07T23:59:12.225Z,741.00
